Walworth, United Kingdom
Current Conditions -  °F | °C
As of 2:50 AM on Friday 28 Nov 2014 (Local Time) from EGLC Reporting Station
Broken Clouds Broken Clouds  
Wind Chill: 11°   Ceiling: 1200
Heat Index: 11°   Visibility: 4mi
Dew Point:   Wind: 10mph
Humidity: 88%   Direction: 90°E
Pressure: 29.59"   Gusts: NA
Location:  51.49°N, 0.09°W
Report Text: EGLC 280250Z AUTO 09009KT 6000 FEW007/// SCT009/// BKN012/// 11/09 Q1002
Loading
Personal Weather Stations






























Interactive Weather Map New forecast layout! Learn more

10-Day Weather Forecast

Advertisements
Track Severe Weather on mobile